Skip Navigation Links
NOAA logo - Click to go to the NOAA homepage
NOAA's National Weather Service
Alaska Aviation Weather Unit
  NWS logo - Click to go to the NWS homepage
Left Navbar Graphic     03 AKDT = 11 GMT

   
NOAA is celebrating 200 years of science, service, and stewardship. Visit the NOAA 200th celebration Web site to learn more.
USA.gov is the U.S. Government's official Web portal to all Federal, state and local government Web resources and services.
Facebook
NWS on Facebook

AAWU Home :: Display TAF Add Bookmark
TAF PADL 290532Z 2906/3006 VRB05KT P6SM SKC=

METAR PADL 290556Z AUTO 00000KT 10SM CLR M06/M10 A2969= METAR PADL 290656Z AUTO 05005KT 10SM CLR M07/M11 A2972= METAR PADL 290756Z AUTO 02005KT 10SM CLR M09/M14 A2973= METAR PADL 290956Z AUTO 35007KT 10SM CLR M08/M14 A2975= METAR PADL 291056Z AUTO 33003KT 10SM CLR M11/M15 A2976=
 Alaska TAF Map

NOAA's National Weather Service
Alaska Aviation Weather Unit
6930 Sand Lake Road
Anchorage, AK 99502-1845
Disclaimer
Credits
Glossary
Privacy Policy
About Us
Career Opportunities
Contact AAWU Internet Services Site last modified: April, 17th 2012